sensor_id;sensor_type;location;lat;lon;timestamp;temperature;humidity
3051;DHT22;1535;51.098;6.414;2023-06-14T00:00:06;15.80;99.90
3051;DHT22;1535;51.098;6.414;2023-06-14T00:02:33;15.80;99.90
3051;DHT22;1535;51.098;6.414;2023-06-14T00:05:01;15.90;99.90
3051;DHT22;1535;51.098;6.414;2023-06-14T00:07:35;16.00;99.90
3051;DHT22;1535;51.098;6.414;2023-06-14T00:10:05;16.10;99.90
3051;DHT22;1535;51.098;6.414;2023-06-14T00:12:32;16.10;99.90
3051;DHT22;1535;51.098;6.414;2023-06-14T00:14:59;16.10;99.90
3051;DHT22;1535;51.098;6.414;2023-06-14T00:17:27;16.00;99.90
3051;DHT22;1535;51.098;6.414;2023-06-14T00:19:55;16.00;99.90
3051;DHT22;1535;51.098;6.414;2023-06-14T00:22:24;15.80;99.90
3051;DHT22;1535;51.098;6.414;2023-06-14T00:24:51;15.70;99.90
3051;DHT22;1535;51.098;6.414;2023-06-14T00:27:20;15.50;99.90
3051;DHT22;1535;51.098;6.414;2023-06-14T00:29:47;15.50;99.90
3051;DHT22;1535;51.098;6.414;2023-06-14T00:32:14;15.40;99.90
3051;DHT22;1535;51.098;6.414;2023-06-14T00:34:41;15.40;99.90
3051;DHT22;1535;51.098;6.414;2023-06-14T00:37:08;15.40;99.90
3051;DHT22;1535;51.098;6.414;2023-06-14T00:39:36;15.30;99.90
3051;DHT22;1535;51.098;6.414;2023-06-14T00:42:04;15.30;99.90
3051;DHT22;1535;51.098;6.414;2023-06-14T00:44:33;15.20;99.90
3051;DHT22;1535;51.098;6.414;2023-06-14T00:47:00;15.20;99.90
3051;DHT22;1535;51.098;6.414;2023-06-14T00:49:29;15.20;99.90
3051;DHT22;1535;51.098;6.414;2023-06-14T00:51:56;15.20;99.90
3051;DHT22;1535;51.098;6.414;2023-06-14T00:54:24;15.00;99.90
3051;DHT22;1535;51.098;6.414;2023-06-14T00:56:51;14.90;99.90
3051;DHT22;1535;51.098;6.414;2023-06-14T00:59:18;14.70;99.90
3051;DHT22;1535;51.098;6.414;2023-06-14T01:01:47;14.70;99.90
3051;DHT22;1535;51.098;6.414;2023-06-14T01:04:15;14.70;99.90
3051;DHT22;1535;51.098;6.414;2023-06-14T01:06:47;14.60;99.90
3051;DHT22;1535;51.098;6.414;2023-06-14T01:09:21;14.60;99.90
3051;DHT22;1535;51.098;6.414;2023-06-14T01:11:56;14.70;99.90
3051;DHT22;1535;51.098;6.414;2023-06-14T01:14:25;14.70;99.90
3051;DHT22;1535;51.098;6.414;2023-06-14T01:16:55;14.70;99.90
3051;DHT22;1535;51.098;6.414;2023-06-14T01:19:23;14.60;99.90
3051;DHT22;1535;51.098;6.414;2023-06-14T01:21:51;14.50;99.90
3051;DHT22;1535;51.098;6.414;2023-06-14T01:24:19;14.50;99.90
3051;DHT22;1535;51.098;6.414;2023-06-14T01:26:52;14.50;99.90
3051;DHT22;1535;51.098;6.414;2023-06-14T01:29:22;14.50;99.90
3051;DHT22;1535;51.098;6.414;2023-06-14T01:31:51;14.40;99.90
3051;DHT22;1535;51.098;6.414;2023-06-14T01:34:20;14.40;99.90
3051;DHT22;1535;51.098;6.414;2023-06-14T01:36:48;14.40;99.90
3051;DHT22;1535;51.098;6.414;2023-06-14T01:39:18;14.60;99.90
3051;DHT22;1535;51.098;6.414;2023-06-14T01:41:45;14.70;99.90
3051;DHT22;1535;51.098;6.414;2023-06-14T01:44:14;14.70;99.90
3051;DHT22;1535;51.098;6.414;2023-06-14T01:46:43;14.60;99.90
3051;DHT22;1535;51.098;6.414;2023-06-14T01:49:11;14.60;99.90
3051;DHT22;1535;51.098;6.414;2023-06-14T01:51:38;14.60;99.90
3051;DHT22;1535;51.098;6.414;2023-06-14T01:54:05;14.50;99.90
3051;DHT22;1535;51.098;6.414;2023-06-14T01:56:33;14.60;99.90
3051;DHT22;1535;51.098;6.414;2023-06-14T01:59:00;14.70;99.90
3051;DHT22;1535;51.098;6.414;2023-06-14T02:01:27;14.70;99.90
3051;DHT22;1535;51.098;6.414;2023-06-14T02:03:54;14.80;99.90
3051;DHT22;1535;51.098;6.414;2023-06-14T02:06:21;14.90;99.90
3051;DHT22;1535;51.098;6.414;2023-06-14T02:08:48;15.00;99.90
3051;DHT22;1535;51.098;6.414;2023-06-14T02:11:16;15.00;99.90
3051;DHT22;1535;51.098;6.414;2023-06-14T02:13:44;14.90;99.90
3051;DHT22;1535;51.098;6.414;2023-06-14T02:16:11;14.80;99.90
3051;DHT22;1535;51.098;6.414;2023-06-14T02:18:39;14.70;99.90
3051;DHT22;1535;51.098;6.414;2023-06-14T02:21:07;14.70;99.90
3051;DHT22;1535;51.098;6.414;2023-06-14T02:23:35;14.80;99.90
3051;DHT22;1535;51.098;6.414;2023-06-14T02:26:01;14.80;99.90
3051;DHT22;1535;51.098;6.414;2023-06-14T02:28:29;14.90;99.90
3051;DHT22;1535;51.098;6.414;2023-06-14T02:30:58;15.00;99.90
3051;DHT22;1535;51.098;6.414;2023-06-14T02:33:26;15.10;99.90
3051;DHT22;1535;51.098;6.414;2023-06-14T02:35:53;15.10;99.90
3051;DHT22;1535;51.098;6.414;2023-06-14T02:38:21;15.10;99.90
3051;DHT22;1535;51.098;6.414;2023-06-14T02:40:49;15.20;99.90
3051;DHT22;1535;51.098;6.414;2023-06-14T02:43:17;15.20;99.90
3051;DHT22;1535;51.098;6.414;2023-06-14T02:45:43;15.20;99.90
3051;DHT22;1535;51.098;6.414;2023-06-14T02:48:12;15.30;99.90
3051;DHT22;1535;51.098;6.414;2023-06-14T02:50:39;15.30;99.90
3051;DHT22;1535;51.098;6.414;2023-06-14T02:53:06;15.30;99.90
3051;DHT22;1535;51.098;6.414;2023-06-14T02:55:33;15.20;99.90
3051;DHT22;1535;51.098;6.414;2023-06-14T02:58:04;15.30;99.90
3051;DHT22;1535;51.098;6.414;2023-06-14T03:00:31;15.30;99.90
3051;DHT22;1535;51.098;6.414;2023-06-14T03:02:58;15.30;99.90
3051;DHT22;1535;51.098;6.414;2023-06-14T03:05:28;15.30;99.90
3051;DHT22;1535;51.098;6.414;2023-06-14T03:07:56;15.40;99.90
3051;DHT22;1535;51.098;6.414;2023-06-14T03:10:23;15.50;99.90
3051;DHT22;1535;51.098;6.414;2023-06-14T03:12:50;15.40;99.90
3051;DHT22;1535;51.098;6.414;2023-06-14T03:15:18;15.30;99.90
3051;DHT22;1535;51.098;6.414;2023-06-14T03:17:44;15.30;99.90
3051;DHT22;1535;51.098;6.414;2023-06-14T03:20:16;15.30;99.90
3051;DHT22;1535;51.098;6.414;2023-06-14T03:22:44;15.20;99.90
3051;DHT22;1535;51.098;6.414;2023-06-14T03:25:13;15.20;99.90
3051;DHT22;1535;51.098;6.414;2023-06-14T03:27:41;15.20;99.90
3051;DHT22;1535;51.098;6.414;2023-06-14T03:30:09;15.20;99.90
3051;DHT22;1535;51.098;6.414;2023-06-14T03:32:36;15.20;99.90
3051;DHT22;1535;51.098;6.414;2023-06-14T03:35:03;15.30;99.90
3051;DHT22;1535;51.098;6.414;2023-06-14T03:37:30;15.10;99.90
3051;DHT22;1535;51.098;6.414;2023-06-14T03:39:59;14.90;99.90
3051;DHT22;1535;51.098;6.414;2023-06-14T03:42:26;14.80;99.90
3051;DHT22;1535;51.098;6.414;2023-06-14T03:44:54;14.70;99.90
3051;DHT22;1535;51.098;6.414;2023-06-14T03:47:20;14.60;99.90
3051;DHT22;1535;51.098;6.414;2023-06-14T03:49:47;14.50;99.90
3051;DHT22;1535;51.098;6.414;2023-06-14T03:52:15;14.50;99.90
3051;DHT22;1535;51.098;6.414;2023-06-14T03:54:42;14.40;99.90
3051;DHT22;1535;51.098;6.414;2023-06-14T03:57:12;14.50;99.90
3051;DHT22;1535;51.098;6.414;2023-06-14T03:59:39;14.60;99.90
3051;DHT22;1535;51.098;6.414;2023-06-14T04:02:07;14.80;99.90
3051;DHT22;1535;51.098;6.414;2023-06-14T04:04:35;14.90;99.90
3051;DHT22;1535;51.098;6.414;2023-06-14T04:07:03;15.10;99.90
3051;DHT22;1535;51.098;6.414;2023-06-14T04:09:31;15.20;99.90
3051;DHT22;1535;51.098;6.414;2023-06-14T04:11:58;15.30;99.90
3051;DHT22;1535;51.098;6.414;2023-06-14T04:14:26;15.30;99.90
3051;DHT22;1535;51.098;6.414;2023-06-14T04:16:53;15.40;99.90
3051;DHT22;1535;51.098;6.414;2023-06-14T04:19:20;15.50;99.90
3051;DHT22;1535;51.098;6.414;2023-06-14T04:21:47;15.50;99.90
3051;DHT22;1535;51.098;6.414;2023-06-14T04:24:14;15.60;99.90
3051;DHT22;1535;51.098;6.414;2023-06-14T04:26:42;15.70;99.90
3051;DHT22;1535;51.098;6.414;2023-06-14T04:29:10;15.80;99.90
3051;DHT22;1535;51.098;6.414;2023-06-14T04:31:41;15.90;99.90
3051;DHT22;1535;51.098;6.414;2023-06-14T04:34:08;16.00;99.90
3051;DHT22;1535;51.098;6.414;2023-06-14T04:36:41;15.90;99.90
3051;DHT22;1535;51.098;6.414;2023-06-14T04:39:14;16.00;99.90
3051;DHT22;1535;51.098;6.414;2023-06-14T04:41:43;16.00;99.90
3051;DHT22;1535;51.098;6.414;2023-06-14T04:44:10;16.10;99.90
3051;DHT22;1535;51.098;6.414;2023-06-14T04:46:38;16.20;99.90
3051;DHT22;1535;51.098;6.414;2023-06-14T04:49:12;16.20;99.90
3051;DHT22;1535;51.098;6.414;2023-06-14T04:51:40;16.40;99.90
3051;DHT22;1535;51.098;6.414;2023-06-14T04:54:06;16.40;99.90
3051;DHT22;1535;51.098;6.414;2023-06-14T04:56:36;16.50;99.90
3051;DHT22;1535;51.098;6.414;2023-06-14T04:59:03;16.70;99.90
3051;DHT22;1535;51.098;6.414;2023-06-14T05:01:31;16.80;99.90
3051;DHT22;1535;51.098;6.414;2023-06-14T05:03:58;16.80;99.90
3051;DHT22;1535;51.098;6.414;2023-06-14T05:06:27;17.00;99.90
3051;DHT22;1535;51.098;6.414;2023-06-14T05:08:54;17.10;99.90
3051;DHT22;1535;51.098;6.414;2023-06-14T05:11:21;17.20;99.90
3051;DHT22;1535;51.098;6.414;2023-06-14T05:13:49;17.30;99.90
3051;DHT22;1535;51.098;6.414;2023-06-14T05:16:16;17.30;99.90
3051;DHT22;1535;51.098;6.414;2023-06-14T05:18:45;17.50;99.90
3051;DHT22;1535;51.098;6.414;2023-06-14T05:21:13;17.50;99.90
3051;DHT22;1535;51.098;6.414;2023-06-14T05:23:44;17.60;99.90
3051;DHT22;1535;51.098;6.414;2023-06-14T05:26:11;17.80;99.90
3051;DHT22;1535;51.098;6.414;2023-06-14T05:28:39;17.90;99.90
3051;DHT22;1535;51.098;6.414;2023-06-14T05:31:06;18.00;99.90
3051;DHT22;1535;51.098;6.414;2023-06-14T05:33:33;18.20;99.90
3051;DHT22;1535;51.098;6.414;2023-06-14T05:36:01;18.20;99.90
3051;DHT22;1535;51.098;6.414;2023-06-14T05:38:41;18.40;99.90
3051;DHT22;1535;51.098;6.414;2023-06-14T05:41:10;18.60;99.90
3051;DHT22;1535;51.098;6.414;2023-06-14T05:43:38;18.60;99.90
3051;DHT22;1535;51.098;6.414;2023-06-14T05:46:05;18.70;99.90
3051;DHT22;1535;51.098;6.414;2023-06-14T05:48:32;18.90;99.90
3051;DHT22;1535;51.098;6.414;2023-06-14T05:50:59;19.10;99.90
3051;DHT22;1535;51.098;6.414;2023-06-14T05:53:26;19.20;99.90
3051;DHT22;1535;51.098;6.414;2023-06-14T05:55:53;19.30;99.90
3051;DHT22;1535;51.098;6.414;2023-06-14T05:58:22;19.30;99.90
3051;DHT22;1535;51.098;6.414;2023-06-14T06:00:48;19.40;99.90
3051;DHT22;1535;51.098;6.414;2023-06-14T06:03:16;19.50;99.90
3051;DHT22;1535;51.098;6.414;2023-06-14T06:05:43;19.60;99.90
3051;DHT22;1535;51.098;6.414;2023-06-14T06:08:10;19.90;99.90
3051;DHT22;1535;51.098;6.414;2023-06-14T06:10:37;19.80;99.90
3051;DHT22;1535;51.098;6.414;2023-06-14T06:13:03;19.80;99.90
3051;DHT22;1535;51.098;6.414;2023-06-14T06:15:32;20.00;99.90
3051;DHT22;1535;51.098;6.414;2023-06-14T06:17:58;20.00;99.90
3051;DHT22;1535;51.098;6.414;2023-06-14T06:20:25;20.20;99.90
3051;DHT22;1535;51.098;6.414;2023-06-14T06:22:54;20.00;99.90
3051;DHT22;1535;51.098;6.414;2023-06-14T06:25:22;20.10;99.90
3051;DHT22;1535;51.098;6.414;2023-06-14T06:27:51;20.30;99.90
3051;DHT22;1535;51.098;6.414;2023-06-14T06:30:18;20.30;99.90
3051;DHT22;1535;51.098;6.414;2023-06-14T06:32:46;20.40;99.90
3051;DHT22;1535;51.098;6.414;2023-06-14T06:35:14;20.50;99.90
3051;DHT22;1535;51.098;6.414;2023-06-14T06:37:41;20.60;99.90
3051;DHT22;1535;51.098;6.414;2023-06-14T06:40:09;20.70;99.90
3051;DHT22;1535;51.098;6.414;2023-06-14T06:42:36;20.90;99.90
3051;DHT22;1535;51.098;6.414;2023-06-14T06:45:03;21.00;99.90
3051;DHT22;1535;51.098;6.414;2023-06-14T06:47:30;21.20;99.90
3051;DHT22;1535;51.098;6.414;2023-06-14T06:49:59;21.20;99.90
3051;DHT22;1535;51.098;6.414;2023-06-14T06:52:25;21.30;99.90
3051;DHT22;1535;51.098;6.414;2023-06-14T06:54:53;21.50;99.90
3051;DHT22;1535;51.098;6.414;2023-06-14T06:57:21;21.70;99.90
3051;DHT22;1535;51.098;6.414;2023-06-14T06:59:49;21.80;99.90
3051;DHT22;1535;51.098;6.414;2023-06-14T07:02:16;22.00;99.90
3051;DHT22;1535;51.098;6.414;2023-06-14T07:04:42;22.10;99.90
3051;DHT22;1535;51.098;6.414;2023-06-14T07:07:11;22.10;99.80
3051;DHT22;1535;51.098;6.414;2023-06-14T07:09:38;22.20;99.90
3051;DHT22;1535;51.098;6.414;2023-06-14T07:12:06;22.40;99.30
3051;DHT22;1535;51.098;6.414;2023-06-14T07:14:33;22.70;98.90
3051;DHT22;1535;51.098;6.414;2023-06-14T07:17:00;22.80;98.00
3051;DHT22;1535;51.098;6.414;2023-06-14T07:19:27;23.20;97.50
3051;DHT22;1535;51.098;6.414;2023-06-14T07:21:54;23.40;97.50
3051;DHT22;1535;51.098;6.414;2023-06-14T07:24:22;23.30;95.90
3051;DHT22;1535;51.098;6.414;2023-06-14T07:26:49;23.20;95.60
3051;DHT22;1535;51.098;6.414;2023-06-14T07:29:16;22.80;94.40
3051;DHT22;1535;51.098;6.414;2023-06-14T07:31:43;22.90;95.90
3051;DHT22;1535;51.098;6.414;2023-06-14T07:34:11;23.50;95.80
3051;DHT22;1535;51.098;6.414;2023-06-14T07:36:38;23.50;94.00
3051;DHT22;1535;51.098;6.414;2023-06-14T07:39:04;23.30;93.40
3051;DHT22;1535;51.098;6.414;2023-06-14T07:41:33;23.40;93.60
3051;DHT22;1535;51.098;6.414;2023-06-14T07:44:00;23.20;93.40
3051;DHT22;1535;51.098;6.414;2023-06-14T07:46:26;23.50;93.10
3051;DHT22;1535;51.098;6.414;2023-06-14T07:48:53;23.80;91.80
3051;DHT22;1535;51.098;6.414;2023-06-14T07:51:21;23.90;92.00
3051;DHT22;1535;51.098;6.414;2023-06-14T07:53:49;24.20;91.40
3051;DHT22;1535;51.098;6.414;2023-06-14T07:56:15;24.40;90.30
3051;DHT22;1535;51.098;6.414;2023-06-14T07:58:43;24.10;90.40
3051;DHT22;1535;51.098;6.414;2023-06-14T08:01:11;24.10;90.60
3051;DHT22;1535;51.098;6.414;2023-06-14T08:03:38;24.40;89.00
3051;DHT22;1535;51.098;6.414;2023-06-14T08:06:05;24.50;88.80
3051;DHT22;1535;51.098;6.414;2023-06-14T08:08:33;25.10;86.40
3051;DHT22;1535;51.098;6.414;2023-06-14T08:11:00;25.40;83.80
3051;DHT22;1535;51.098;6.414;2023-06-14T08:13:27;26.10;80.70
3051;DHT22;1535;51.098;6.414;2023-06-14T08:15:56;26.70;79.80
3051;DHT22;1535;51.098;6.414;2023-06-14T08:18:24;27.00;76.60
3051;DHT22;1535;51.098;6.414;2023-06-14T08:20:51;26.80;76.60
3051;DHT22;1535;51.098;6.414;2023-06-14T08:23:20;27.50;75.40
3051;DHT22;1535;51.098;6.414;2023-06-14T08:25:47;27.90;72.70
3051;DHT22;1535;51.098;6.414;2023-06-14T08:28:15;27.80;73.60
3051;DHT22;1535;51.098;6.414;2023-06-14T08:30:42;28.40;70.60
3051;DHT22;1535;51.098;6.414;2023-06-14T08:33:11;28.50;66.80
3051;DHT22;1535;51.098;6.414;2023-06-14T08:35:38;28.40;64.10
3051;DHT22;1535;51.098;6.414;2023-06-14T08:38:05;28.10;64.00
3051;DHT22;1535;51.098;6.414;2023-06-14T08:40:37;28.20;63.70
3051;DHT22;1535;51.098;6.414;2023-06-14T08:43:04;28.50;61.70
3051;DHT22;1535;51.098;6.414;2023-06-14T08:45:31;28.00;61.50
3051;DHT22;1535;51.098;6.414;2023-06-14T08:47:59;27.80;56.70
3051;DHT22;1535;51.098;6.414;2023-06-14T08:50:28;27.80;54.10
3051;DHT22;1535;51.098;6.414;2023-06-14T08:52:57;28.60;55.80
3051;DHT22;1535;51.098;6.414;2023-06-14T08:55:27;28.50;53.30
3051;DHT22;1535;51.098;6.414;2023-06-14T08:57:56;28.30;52.90
3051;DHT22;1535;51.098;6.414;2023-06-14T09:00:24;28.80;51.40
3051;DHT22;1535;51.098;6.414;2023-06-14T09:02:52;28.70;50.70
3051;DHT22;1535;51.098;6.414;2023-06-14T09:05:23;28.50;49.60
3051;DHT22;1535;51.098;6.414;2023-06-14T09:07:52;28.70;49.60
3051;DHT22;1535;51.098;6.414;2023-06-14T09:10:21;28.60;49.10
3051;DHT22;1535;51.098;6.414;2023-06-14T09:12:48;28.60;46.30
3051;DHT22;1535;51.098;6.414;2023-06-14T09:15:15;28.80;48.20
3051;DHT22;1535;51.098;6.414;2023-06-14T09:17:43;28.80;46.70
3051;DHT22;1535;51.098;6.414;2023-06-14T09:20:10;29.10;48.10
3051;DHT22;1535;51.098;6.414;2023-06-14T09:22:39;29.00;47.50
3051;DHT22;1535;51.098;6.414;2023-06-14T09:25:09;28.70;46.70
3051;DHT22;1535;51.098;6.414;2023-06-14T09:27:37;29.00;47.10
3051;DHT22;1535;51.098;6.414;2023-06-14T09:30:06;28.70;46.50
3051;DHT22;1535;51.098;6.414;2023-06-14T09:32:37;29.10;46.00
3051;DHT22;1535;51.098;6.414;2023-06-14T09:35:05;28.90;45.80
3051;DHT22;1535;51.098;6.414;2023-06-14T09:37:33;29.20;45.70
3051;DHT22;1535;51.098;6.414;2023-06-14T09:40:01;28.70;45.50
3051;DHT22;1535;51.098;6.414;2023-06-14T09:42:31;28.60;45.50
3051;DHT22;1535;51.098;6.414;2023-06-14T09:45:02;28.30;46.10
3051;DHT22;1535;51.098;6.414;2023-06-14T09:47:30;28.50;45.80
3051;DHT22;1535;51.098;6.414;2023-06-14T09:49:57;28.60;46.80
3051;DHT22;1535;51.098;6.414;2023-06-14T09:52:26;29.30;46.40
3051;DHT22;1535;51.098;6.414;2023-06-14T09:54:55;30.30;46.80
3051;DHT22;1535;51.098;6.414;2023-06-14T09:57:23;30.60;47.70
3051;DHT22;1535;51.098;6.414;2023-06-14T09:59:56;30.70;47.60
3051;DHT22;1535;51.098;6.414;2023-06-14T10:02:25;30.60;47.20
3051;DHT22;1535;51.098;6.414;2023-06-14T10:04:58;30.40;47.90
3051;DHT22;1535;51.098;6.414;2023-06-14T10:07:26;29.90;47.00
3051;DHT22;1535;51.098;6.414;2023-06-14T10:09:56;29.60;48.30
3051;DHT22;1535;51.098;6.414;2023-06-14T10:12:24;29.90;47.40
3051;DHT22;1535;51.098;6.414;2023-06-14T10:14:53;30.80;47.20
3051;DHT22;1535;51.098;6.414;2023-06-14T10:17:30;30.30;45.50
3051;DHT22;1535;51.098;6.414;2023-06-14T10:20:10;29.90;47.10
3051;DHT22;1535;51.098;6.414;2023-06-14T10:22:45;29.80;48.30
3051;DHT22;1535;51.098;6.414;2023-06-14T10:25:26;30.60;47.00
3051;DHT22;1535;51.098;6.414;2023-06-14T10:27:53;30.20;46.60
3051;DHT22;1535;51.098;6.414;2023-06-14T10:30:29;29.90;47.20
3051;DHT22;1535;51.098;6.414;2023-06-14T10:33:06;29.30;47.30
3051;DHT22;1535;51.098;6.414;2023-06-14T10:35:34;29.60;49.10
3051;DHT22;1535;51.098;6.414;2023-06-14T10:38:07;29.50;48.20
3051;DHT22;1535;51.098;6.414;2023-06-14T10:40:35;29.80;49.00
3051;DHT22;1535;51.098;6.414;2023-06-14T10:43:21;29.60;48.80
3051;DHT22;1535;51.098;6.414;2023-06-14T10:46:16;29.20;47.70
3051;DHT22;1535;51.098;6.414;2023-06-14T10:48:45;29.10;47.40
3051;DHT22;1535;51.098;6.414;2023-06-14T10:51:19;28.80;47.40
3051;DHT22;1535;51.098;6.414;2023-06-14T10:53:48;29.00;47.40
3051;DHT22;1535;51.098;6.414;2023-06-14T10:56:27;29.00;46.90
3051;DHT22;1535;51.098;6.414;2023-06-14T10:58:55;29.50;47.00
3051;DHT22;1535;51.098;6.414;2023-06-14T11:01:36;30.10;46.80
3051;DHT22;1535;51.098;6.414;2023-06-14T11:04:10;29.70;46.50
3051;DHT22;1535;51.098;6.414;2023-06-14T11:06:46;29.50;47.50
3051;DHT22;1535;51.098;6.414;2023-06-14T11:09:47;29.90;47.60
3051;DHT22;1535;51.098;6.414;2023-06-14T11:12:21;30.00;46.30
3051;DHT22;1535;51.098;6.414;2023-06-14T11:14:48;30.40;46.80
3051;DHT22;1535;51.098;6.414;2023-06-14T11:17:17;31.20;46.00
3051;DHT22;1535;51.098;6.414;2023-06-14T11:19:44;30.60;46.40
3051;DHT22;1535;51.098;6.414;2023-06-14T11:22:11;31.20;45.80
3051;DHT22;1535;51.098;6.414;2023-06-14T11:24:40;31.00;45.70
3051;DHT22;1535;51.098;6.414;2023-06-14T11:27:07;31.30;46.30
3051;DHT22;1535;51.098;6.414;2023-06-14T11:29:34;32.50;44.50
3051;DHT22;1535;51.098;6.414;2023-06-14T11:32:01;32.20;44.00
3051;DHT22;1535;51.098;6.414;2023-06-14T11:34:29;31.70;45.20
3051;DHT22;1535;51.098;6.414;2023-06-14T11:36:55;31.10;44.70
3051;DHT22;1535;51.098;6.414;2023-06-14T11:39:24;31.20;45.80
3051;DHT22;1535;51.098;6.414;2023-06-14T11:41:52;32.10;44.90
3051;DHT22;1535;51.098;6.414;2023-06-14T11:44:22;32.60;44.40
3051;DHT22;1535;51.098;6.414;2023-06-14T11:46:49;33.40;44.40
3051;DHT22;1535;51.098;6.414;2023-06-14T11:49:16;33.60;42.90
3051;DHT22;1535;51.098;6.414;2023-06-14T11:51:44;34.00;42.40
3051;DHT22;1535;51.098;6.414;2023-06-14T11:54:12;34.10;41.30
3051;DHT22;1535;51.098;6.414;2023-06-14T11:56:39;33.40;41.40
3051;DHT22;1535;51.098;6.414;2023-06-14T11:59:05;33.00;40.70
3051;DHT22;1535;51.098;6.414;2023-06-14T12:01:36;33.30;42.00
3051;DHT22;1535;51.098;6.414;2023-06-14T12:04:05;33.50;40.80
3051;DHT22;1535;51.098;6.414;2023-06-14T12:06:32;34.30;41.90
3051;DHT22;1535;51.098;6.414;2023-06-14T12:09:05;33.80;40.50
3051;DHT22;1535;51.098;6.414;2023-06-14T12:11:33;33.90;41.60
3051;DHT22;1535;51.098;6.414;2023-06-14T12:14:03;34.60;40.30
3051;DHT22;1535;51.098;6.414;2023-06-14T12:16:31;34.40;41.10
3051;DHT22;1535;51.098;6.414;2023-06-14T12:19:01;34.20;41.40
3051;DHT22;1535;51.098;6.414;2023-06-14T12:21:34;33.80;41.40
3051;DHT22;1535;51.098;6.414;2023-06-14T12:24:06;34.30;41.40
3051;DHT22;1535;51.098;6.414;2023-06-14T12:26:37;34.40;41.30
3051;DHT22;1535;51.098;6.414;2023-06-14T12:29:05;33.90;41.30
3051;DHT22;1535;51.098;6.414;2023-06-14T12:31:32;32.80;42.80
3051;DHT22;1535;51.098;6.414;2023-06-14T12:33:59;33.10;44.00
3051;DHT22;1535;51.098;6.414;2023-06-14T12:36:27;33.80;42.60
3051;DHT22;1535;51.098;6.414;2023-06-14T12:38:54;33.50;42.60
3051;DHT22;1535;51.098;6.414;2023-06-14T12:41:22;33.30;42.60
3051;DHT22;1535;51.098;6.414;2023-06-14T12:43:49;33.20;42.80
3051;DHT22;1535;51.098;6.414;2023-06-14T12:46:17;33.10;42.50
3051;DHT22;1535;51.098;6.414;2023-06-14T12:48:44;33.30;42.40
3051;DHT22;1535;51.098;6.414;2023-06-14T12:51:12;33.50;44.20
3051;DHT22;1535;51.098;6.414;2023-06-14T12:53:39;34.60;43.30
3051;DHT22;1535;51.098;6.414;2023-06-14T12:56:06;35.60;42.30
3051;DHT22;1535;51.098;6.414;2023-06-14T12:58:34;35.90;42.60
3051;DHT22;1535;51.098;6.414;2023-06-14T13:01:01;36.20;42.80
3051;DHT22;1535;51.098;6.414;2023-06-14T13:03:28;35.80;41.10
3051;DHT22;1535;51.098;6.414;2023-06-14T13:05:55;35.80;40.80
3051;DHT22;1535;51.098;6.414;2023-06-14T13:08:22;36.10;40.70
3051;DHT22;1535;51.098;6.414;2023-06-14T13:10:49;36.00;40.30
3051;DHT22;1535;51.098;6.414;2023-06-14T13:13:16;36.20;41.50
3051;DHT22;1535;51.098;6.414;2023-06-14T13:15:44;37.10;40.70
3051;DHT22;1535;51.098;6.414;2023-06-14T13:18:12;36.30;39.50
3051;DHT22;1535;51.098;6.414;2023-06-14T13:20:39;35.60;40.60
3051;DHT22;1535;51.098;6.414;2023-06-14T13:23:06;36.10;40.50
3051;DHT22;1535;51.098;6.414;2023-06-14T13:25:33;35.40;42.30
3051;DHT22;1535;51.098;6.414;2023-06-14T13:28:00;35.30;41.60
3051;DHT22;1535;51.098;6.414;2023-06-14T13:30:27;35.50;40.90
3051;DHT22;1535;51.098;6.414;2023-06-14T13:32:55;35.10;40.10
3051;DHT22;1535;51.098;6.414;2023-06-14T13:35:23;35.20;40.40
3051;DHT22;1535;51.098;6.414;2023-06-14T13:37:50;35.50;39.90
3051;DHT22;1535;51.098;6.414;2023-06-14T13:40:17;34.70;40.40
3051;DHT22;1535;51.098;6.414;2023-06-14T13:42:45;34.30;40.30
3051;DHT22;1535;51.098;6.414;2023-06-14T13:45:13;33.90;41.50
3051;DHT22;1535;51.098;6.414;2023-06-14T13:47:40;33.80;40.90
3051;DHT22;1535;51.098;6.414;2023-06-14T13:50:08;34.00;41.60
3051;DHT22;1535;51.098;6.414;2023-06-14T13:52:36;34.40;41.30
3051;DHT22;1535;51.098;6.414;2023-06-14T13:55:03;33.80;41.70
3051;DHT22;1535;51.098;6.414;2023-06-14T13:57:30;34.50;41.40
3051;DHT22;1535;51.098;6.414;2023-06-14T13:59:58;34.10;41.40
3051;DHT22;1535;51.098;6.414;2023-06-14T14:02:27;33.70;41.10
3051;DHT22;1535;51.098;6.414;2023-06-14T14:04:54;33.90;41.60
3051;DHT22;1535;51.098;6.414;2023-06-14T14:07:22;33.80;41.80
3051;DHT22;1535;51.098;6.414;2023-06-14T14:09:49;34.50;41.60
3051;DHT22;1535;51.098;6.414;2023-06-14T14:12:16;33.80;40.80
3051;DHT22;1535;51.098;6.414;2023-06-14T14:14:43;33.80;41.50
3051;DHT22;1535;51.098;6.414;2023-06-14T14:17:11;34.30;41.90
3051;DHT22;1535;51.098;6.414;2023-06-14T14:19:39;34.50;41.30
3051;DHT22;1535;51.098;6.414;2023-06-14T14:22:06;34.50;41.80
3051;DHT22;1535;51.098;6.414;2023-06-14T14:24:35;34.80;40.60
3051;DHT22;1535;51.098;6.414;2023-06-14T14:27:02;34.90;40.50
3051;DHT22;1535;51.098;6.414;2023-06-14T14:29:29;35.20;40.90
3051;DHT22;1535;51.098;6.414;2023-06-14T14:31:55;34.40;42.20
3051;DHT22;1535;51.098;6.414;2023-06-14T14:34:23;34.70;42.00
3051;DHT22;1535;51.098;6.414;2023-06-14T14:36:49;35.10;41.30
3051;DHT22;1535;51.098;6.414;2023-06-14T14:39:17;34.60;40.80
3051;DHT22;1535;51.098;6.414;2023-06-14T14:41:45;34.30;41.60
3051;DHT22;1535;51.098;6.414;2023-06-14T14:44:13;34.10;41.70
3051;DHT22;1535;51.098;6.414;2023-06-14T14:46:40;33.90;42.00
3051;DHT22;1535;51.098;6.414;2023-06-14T14:49:09;34.10;42.30
3051;DHT22;1535;51.098;6.414;2023-06-14T14:51:37;34.40;42.00
3051;DHT22;1535;51.098;6.414;2023-06-14T14:54:05;34.60;42.10
3051;DHT22;1535;51.098;6.414;2023-06-14T14:56:32;35.20;41.60
3051;DHT22;1535;51.098;6.414;2023-06-14T14:59:02;34.60;41.20
3051;DHT22;1535;51.098;6.414;2023-06-14T15:01:29;33.30;41.50
3051;DHT22;1535;51.098;6.414;2023-06-14T15:03:57;33.50;42.00
3051;DHT22;1535;51.098;6.414;2023-06-14T15:06:23;34.30;41.40
3051;DHT22;1535;51.098;6.414;2023-06-14T15:08:50;34.60;41.50
3051;DHT22;1535;51.098;6.414;2023-06-14T15:11:17;34.10;42.10
3051;DHT22;1535;51.098;6.414;2023-06-14T15:13:44;34.40;42.20
3051;DHT22;1535;51.098;6.414;2023-06-14T15:16:13;33.80;42.50
3051;DHT22;1535;51.098;6.414;2023-06-14T15:18:40;33.20;43.40
3051;DHT22;1535;51.098;6.414;2023-06-14T15:21:07;33.90;42.90
3051;DHT22;1535;51.098;6.414;2023-06-14T15:23:34;33.80;42.00
3051;DHT22;1535;51.098;6.414;2023-06-14T15:26:00;34.50;42.10
3051;DHT22;1535;51.098;6.414;2023-06-14T15:28:27;34.40;41.90
3051;DHT22;1535;51.098;6.414;2023-06-14T15:30:55;34.10;41.30
3051;DHT22;1535;51.098;6.414;2023-06-14T15:33:24;34.30;41.30
3051;DHT22;1535;51.098;6.414;2023-06-14T15:35:51;34.30;41.60
3051;DHT22;1535;51.098;6.414;2023-06-14T15:38:19;34.40;41.90
3051;DHT22;1535;51.098;6.414;2023-06-14T15:40:47;33.60;41.60
3051;DHT22;1535;51.098;6.414;2023-06-14T15:43:14;33.80;41.90
3051;DHT22;1535;51.098;6.414;2023-06-14T15:45:40;33.80;41.70
3051;DHT22;1535;51.098;6.414;2023-06-14T15:48:09;33.40;41.90
3051;DHT22;1535;51.098;6.414;2023-06-14T15:50:37;33.60;41.90
3051;DHT22;1535;51.098;6.414;2023-06-14T15:53:04;33.30;40.90
3051;DHT22;1535;51.098;6.414;2023-06-14T15:55:30;33.00;42.20
3051;DHT22;1535;51.098;6.414;2023-06-14T15:57:57;33.20;42.70
3051;DHT22;1535;51.098;6.414;2023-06-14T16:00:24;34.10;42.30
3051;DHT22;1535;51.098;6.414;2023-06-14T16:02:52;33.60;42.00
3051;DHT22;1535;51.098;6.414;2023-06-14T16:05:19;33.70;41.80
3051;DHT22;1535;51.098;6.414;2023-06-14T16:07:47;33.70;42.00